createdAt,value
2023-05-10T00:00:32.935Z,983.92
2023-05-10T00:01:34.672Z,983.88
2023-05-10T00:02:36.567Z,983.94
2023-05-10T00:03:38.280Z,983.93
2023-05-10T00:04:39.866Z,983.94
2023-05-10T00:05:41.624Z,983.97
2023-05-10T00:06:43.357Z,983.9
2023-05-10T00:07:45.073Z,983.95
2023-05-10T00:08:46.826Z,983.94
2023-05-10T00:09:48.552Z,983.92
2023-05-10T00:10:50.283Z,983.94
2023-05-10T00:11:52.072Z,983.93
2023-05-10T00:12:53.780Z,983.95
2023-05-10T00:13:55.469Z,983.91
2023-05-10T00:14:57.213Z,983.93
2023-05-10T00:15:58.964Z,983.96
2023-05-10T00:17:00.819Z,984
2023-05-10T00:18:02.308Z,984.04
2023-05-10T00:19:03.975Z,984.03
2023-05-10T00:20:05.772Z,983.97
2023-05-10T00:21:07.478Z,983.99
2023-05-10T00:22:09.210Z,984.02
2023-05-10T00:23:10.921Z,983.97
2023-05-10T00:24:12.678Z,983.99
2023-05-10T00:25:14.422Z,984.02
2023-05-10T00:26:16.100Z,984
2023-05-10T00:27:17.875Z,983.99
2023-05-10T00:28:19.614Z,983.99
2023-05-10T00:29:21.344Z,983.99
2023-05-10T00:30:23.088Z,984.02
2023-05-10T00:31:24.844Z,983.99
2023-05-10T00:32:26.642Z,983.98
2023-05-10T00:33:28.304Z,984.04
2023-05-10T00:34:30.026Z,984.03
2023-05-10T00:35:31.756Z,984.07
2023-05-10T00:36:33.487Z,984.05
2023-05-10T00:37:35.217Z,984.06
2023-05-10T00:38:36.964Z,984.05
2023-05-10T00:39:38.694Z,984.11
2023-05-10T00:40:40.410Z,984.08
2023-05-10T00:41:42.211Z,984.09
2023-05-10T00:42:43.884Z,984.09
2023-05-10T00:43:45.617Z,984.1
2023-05-10T00:44:47.354Z,984.06
2023-05-10T00:45:49.121Z,984.08
2023-05-10T00:46:50.822Z,984.05
2023-05-10T00:47:52.645Z,984.08
2023-05-10T00:48:54.292Z,984.02
2023-05-10T00:49:56.108Z,984.08
2023-05-10T00:50:57.755Z,984.06
2023-05-10T00:51:59.502Z,984.08
2023-05-10T00:53:01.207Z,984.07
2023-05-10T00:54:02.952Z,984.09
2023-05-10T00:55:04.685Z,984.03
2023-05-10T00:56:06.456Z,984.01
2023-05-10T00:57:08.159Z,984.03
2023-05-10T00:58:09.890Z,983.94
2023-05-10T00:59:11.628Z,983.97
2023-05-10T01:00:13.519Z,984.02
2023-05-10T01:01:15.126Z,983.99
2023-05-10T01:02:16.899Z,983.99
2023-05-10T01:03:18.675Z,984.02
2023-05-10T01:04:20.328Z,984.02
2023-05-10T01:05:22.225Z,984
2023-05-10T01:06:23.744Z,983.96
2023-05-10T01:07:25.497Z,983.99
2023-05-10T01:08:27.364Z,984.04
2023-05-10T01:09:28.970Z,984.06
2023-05-10T01:10:30.722Z,984.03
2023-05-10T01:11:32.460Z,984.03
2023-05-10T01:12:34.315Z,984.01
2023-05-10T01:13:35.923Z,984.03
2023-05-10T01:14:37.636Z,984.04
2023-05-10T01:16:41.154Z,984.01
2023-05-10T01:17:42.898Z,984.03
2023-05-10T01:18:44.577Z,984.04
2023-05-10T01:19:46.288Z,984
2023-05-10T01:20:48.052Z,984.08
2023-05-10T01:21:49.839Z,984.11
2023-05-10T01:22:51.505Z,984.04
2023-05-10T01:23:53.234Z,984.06
2023-05-10T01:24:54.978Z,984.04
2023-05-10T01:25:56.708Z,984.03
2023-05-10T01:26:58.437Z,984.02
2023-05-10T01:28:00.194Z,984.03
2023-05-10T01:29:01.906Z,984.08
2023-05-10T01:30:21.977Z,984.07
2023-05-10T01:31:05.412Z,984.07
2023-05-10T01:32:07.114Z,984.07
2023-05-10T01:33:09.068Z,984.06
2023-05-10T01:34:10.605Z,984.02
2023-05-10T01:35:12.321Z,984.05
2023-05-10T01:36:14.047Z,984.07
2023-05-10T01:37:15.805Z,984.06
2023-05-10T01:38:17.540Z,984.11
2023-05-10T01:39:19.312Z,984.12
2023-05-10T01:40:21.090Z,984.1
2023-05-10T01:41:22.738Z,984.14
2023-05-10T01:42:24.491Z,984.15
2023-05-10T01:43:26.176Z,984.14
2023-05-10T01:44:27.924Z,984.16
2023-05-10T01:45:29.676Z,984.16
2023-05-10T01:46:31.608Z,984.11
2023-05-10T01:47:33.170Z,984.17
2023-05-10T01:48:34.868Z,984.21
2023-05-10T01:49:36.623Z,984.22
2023-05-10T01:50:38.348Z,984.22
2023-05-10T01:51:40.073Z,984.29
2023-05-10T01:52:41.849Z,984.24
2023-05-10T01:53:43.533Z,984.27
2023-05-10T01:54:45.280Z,984.3
2023-05-10T01:55:47.028Z,984.29
2023-05-10T01:56:48.767Z,984.26
2023-05-10T01:57:50.489Z,984.32
2023-05-10T01:58:52.215Z,984.3
2023-05-10T01:59:53.969Z,984.32
2023-05-10T02:00:55.736Z,984.3
2023-05-10T02:01:57.412Z,984.31
2023-05-10T02:02:59.200Z,984.31
2023-05-10T02:04:01.038Z,984.32
2023-05-10T02:05:02.622Z,984.34
2023-05-10T02:06:04.366Z,984.37
2023-05-10T02:07:06.099Z,984.41
2023-05-10T02:08:07.825Z,984.4
2023-05-10T02:09:09.560Z,984.39
2023-05-10T02:10:11.292Z,984.43
2023-05-10T02:11:13.031Z,984.42
2023-05-10T02:12:15.174Z,984.39
2023-05-10T02:13:16.581Z,984.36
2023-05-10T02:14:18.221Z,984.38
2023-05-10T02:15:19.975Z,984.39
2023-05-10T02:16:21.733Z,984.42
2023-05-10T02:17:23.439Z,984.41
2023-05-10T02:18:25.172Z,984.41
2023-05-10T02:19:26.914Z,984.38
2023-05-10T02:20:28.640Z,984.4
2023-05-10T02:21:30.436Z,984.39
2023-05-10T02:22:32.130Z,984.46
2023-05-10T02:23:33.851Z,984.44
2023-05-10T02:24:35.574Z,984.37
2023-05-10T02:25:37.332Z,984.45
2023-05-10T02:26:39.038Z,984.5
2023-05-10T02:27:40.799Z,984.44
2023-05-10T02:28:45.272Z,984.49
2023-05-10T02:29:47.013Z,984.48
2023-05-10T02:30:48.755Z,984.44
2023-05-10T02:31:50.511Z,984.49
2023-05-10T02:32:52.234Z,984.49
2023-05-10T02:33:53.939Z,984.47
2023-05-10T02:34:55.760Z,984.49
2023-05-10T02:35:57.414Z,984.46
2023-05-10T02:36:59.197Z,984.5
2023-05-10T02:38:00.903Z,984.51
2023-05-10T02:39:02.645Z,984.51
2023-05-10T02:40:04.357Z,984.52
2023-05-10T02:41:06.096Z,984.49
2023-05-10T02:42:07.809Z,984.5
2023-05-10T02:43:09.551Z,984.52
2023-05-10T02:44:11.656Z,984.54
2023-05-10T02:45:13.147Z,984.54
2023-05-10T02:46:14.857Z,984.54
2023-05-10T02:47:16.495Z,984.54
2023-05-10T02:48:18.228Z,984.59
2023-05-10T02:49:19.968Z,984.52
2023-05-10T02:50:21.683Z,984.55
2023-05-10T02:51:23.464Z,984.53
2023-05-10T02:52:25.160Z,984.53
2023-05-10T02:53:26.895Z,984.57
2023-05-10T02:54:28.636Z,984.53
2023-05-10T02:55:30.385Z,984.54
2023-05-10T02:56:32.110Z,984.5
2023-05-10T02:57:33.985Z,984.5
2023-05-10T02:58:35.560Z,984.51
2023-05-10T02:59:37.292Z,984.55
2023-05-10T03:00:39.051Z,984.53
2023-05-10T03:01:40.866Z,984.57
2023-05-10T03:02:42.550Z,984.54
2023-05-10T03:03:44.342Z,984.55
2023-05-10T03:04:46.006Z,984.54
2023-05-10T03:05:47.711Z,984.57
2023-05-10T03:06:49.444Z,984.59
2023-05-10T03:07:51.188Z,984.59
2023-05-10T03:08:52.918Z,984.61
2023-05-10T03:09:54.636Z,984.54
2023-05-10T03:10:56.443Z,984.61
2023-05-10T03:11:58.108Z,984.59
2023-05-10T03:12:59.907Z,984.62
2023-05-10T03:14:01.567Z,984.62
2023-05-10T03:15:03.306Z,984.6
2023-05-10T03:16:05.100Z,984.62
2023-05-10T03:17:06.802Z,984.66
2023-05-10T03:18:08.507Z,984.59
2023-05-10T03:19:10.230Z,984.59
2023-05-10T03:20:11.996Z,984.61
2023-05-10T03:21:13.705Z,984.58
2023-05-10T03:22:15.445Z,984.64
2023-05-10T03:23:17.199Z,984.59
2023-05-10T03:24:18.945Z,984.59
2023-05-10T03:25:20.838Z,984.61
2023-05-10T03:26:22.378Z,984.63
2023-05-10T03:27:24.278Z,984.66
2023-05-10T03:28:25.925Z,984.65
2023-05-10T03:29:27.544Z,984.69
2023-05-10T03:30:29.263Z,984.72
2023-05-10T03:31:31.063Z,984.69
2023-05-10T03:32:32.933Z,984.72
2023-05-10T03:33:34.474Z,984.7
2023-05-10T03:34:36.197Z,984.78
2023-05-10T03:35:37.899Z,984.8
2023-05-10T03:36:39.625Z,984.79
2023-05-10T03:37:41.358Z,984.8
2023-05-10T03:38:43.073Z,984.8
2023-05-10T03:39:44.817Z,984.83
2023-05-10T03:40:46.537Z,984.84
2023-05-10T03:41:48.251Z,984.85
2023-05-10T03:42:49.972Z,984.88
2023-05-10T03:43:51.705Z,984.88
2023-05-10T03:44:53.413Z,984.87
2023-05-10T03:45:55.153Z,984.89
2023-05-10T03:46:56.893Z,984.86
2023-05-10T03:47:58.630Z,984.91
2023-05-10T03:49:00.322Z,984.85
2023-05-10T03:50:02.095Z,984.85
2023-05-10T03:51:03.786Z,984.9
2023-05-10T03:52:05.502Z,984.84
2023-05-10T03:53:07.245Z,984.86
2023-05-10T03:54:09.071Z,984.87
2023-05-10T03:55:10.694Z,984.84
2023-05-10T03:56:12.441Z,984.83
2023-05-10T03:57:14.166Z,984.82
2023-05-10T03:58:15.906Z,984.81
2023-05-10T03:59:17.659Z,984.8
2023-05-10T04:00:19.564Z,984.79
2023-05-10T04:01:21.101Z,984.7
2023-05-10T04:02:22.913Z,984.8
2023-05-10T04:03:24.674Z,984.76
2023-05-10T04:04:26.304Z,984.75
2023-05-10T04:05:28.059Z,984.82
2023-05-10T04:06:29.852Z,984.79
2023-05-10T04:07:31.552Z,984.8
2023-05-10T04:08:33.396Z,984.81
2023-05-10T04:09:35.080Z,984.82
2023-05-10T04:10:36.700Z,984.81
2023-05-10T04:11:38.435Z,984.83
2023-05-10T04:12:40.168Z,984.82
2023-05-10T04:13:41.914Z,984.85
2023-05-10T04:14:43.649Z,984.87
2023-05-10T04:15:45.394Z,984.85
2023-05-10T04:16:47.292Z,984.86
2023-05-10T04:17:48.887Z,984.87
2023-05-10T04:18:50.585Z,984.85
2023-05-10T04:19:52.316Z,984.92
2023-05-10T04:20:54.031Z,984.85
2023-05-10T04:21:55.938Z,984.89
2023-05-10T04:22:57.530Z,984.88
2023-05-10T04:23:59.264Z,984.89
2023-05-10T04:25:00.983Z,984.89
2023-05-10T04:26:02.765Z,984.94
2023-05-10T04:27:04.452Z,984.94
2023-05-10T04:28:06.205Z,984.94
2023-05-10T04:29:07.946Z,984.96
2023-05-10T04:30:09.674Z,984.92
2023-05-10T04:31:11.426Z,984.96
2023-05-10T04:32:13.117Z,984.97
2023-05-10T04:33:14.845Z,984.96
2023-05-10T04:34:16.627Z,985
2023-05-10T04:35:18.422Z,985.04
2023-05-10T04:36:20.060Z,984.99
2023-05-10T04:37:20.954Z,985.01
2023-05-10T04:38:50.221Z,985.04
2023-05-10T04:41:59.366Z,985.08
2023-05-10T04:43:01.073Z,985.12
2023-05-10T04:44:02.814Z,985.13
2023-05-10T04:45:04.583Z,985.17
2023-05-10T04:46:06.468Z,985.18
2023-05-10T04:47:09.937Z,985.19
2023-05-10T04:48:09.737Z,985.19
2023-05-10T04:49:11.478Z,985.15
2023-05-10T04:50:13.198Z,985.18
2023-05-10T04:51:14.988Z,985.21
2023-05-10T04:52:16.677Z,985.25
2023-05-10T04:53:18.416Z,985.25
2023-05-10T04:54:20.133Z,985.2
2023-05-10T04:55:21.850Z,985.24
2023-05-10T04:56:23.617Z,985.23
2023-05-10T04:57:25.386Z,985.21
2023-05-10T04:58:27.068Z,985.22
2023-05-10T04:59:28.786Z,985.17
2023-05-10T05:00:30.471Z,985.14
2023-05-10T05:01:32.368Z,985.18
2023-05-10T05:02:34.179Z,985.13
2023-05-10T05:03:35.825Z,985.12
2023-05-10T05:04:37.481Z,985.13
2023-05-10T05:05:39.233Z,985.11
2023-05-10T05:06:40.956Z,985.1
2023-05-10T05:07:42.664Z,985.11
2023-05-10T05:08:44.437Z,985.03
2023-05-10T05:09:46.123Z,985.06
2023-05-10T05:10:47.879Z,985.04
2023-05-10T05:11:49.613Z,985.06
2023-05-10T05:12:51.394Z,985.08
2023-05-10T05:13:53.121Z,985.09
2023-05-10T05:14:54.800Z,985.07
2023-05-10T05:15:56.640Z,985.04
2023-05-10T05:16:58.282Z,985.08
2023-05-10T05:18:00.088Z,985.02
2023-05-10T05:19:01.795Z,985.11
2023-05-10T05:20:03.510Z,985.12
2023-05-10T05:21:05.222Z,985.09
2023-05-10T05:22:06.981Z,985.11
2023-05-10T05:23:08.681Z,985.11
2023-05-10T05:24:10.433Z,985.03
2023-05-10T05:25:12.202Z,985.1
2023-05-10T05:26:13.901Z,985.1
2023-05-10T05:27:15.616Z,985.14
2023-05-10T05:28:17.348Z,985.16
2023-05-10T05:29:19.088Z,985.13
2023-05-10T05:30:20.851Z,985.17
2023-05-10T05:31:22.644Z,985.16
2023-05-10T05:32:24.457Z,985.16
2023-05-10T05:33:26.033Z,985.16
2023-05-10T05:34:27.760Z,985.19
2023-05-10T05:35:29.491Z,985.19
2023-05-10T05:36:31.213Z,985.17
2023-05-10T05:37:32.988Z,985.23
2023-05-10T05:38:34.706Z,985.19
2023-05-10T05:39:36.421Z,985.19
2023-05-10T05:40:38.191Z,985.2
2023-05-10T05:41:39.917Z,985.21
2023-05-10T05:42:41.635Z,985.15
2023-05-10T05:43:43.368Z,985.18
2023-05-10T05:44:45.111Z,985.17
2023-05-10T05:45:46.854Z,985.16
2023-05-10T05:46:48.580Z,985.12
2023-05-10T05:47:50.366Z,985.16
2023-05-10T05:48:52.044Z,985.18
2023-05-10T05:49:53.792Z,985.16
2023-05-10T05:50:55.548Z,985.16
2023-05-10T05:51:57.233Z,985.21
2023-05-10T05:52:58.973Z,985.2
2023-05-10T05:54:00.751Z,985.19
2023-05-10T05:55:02.450Z,985.25
2023-05-10T05:56:04.263Z,985.29
2023-05-10T05:57:05.920Z,985.32
2023-05-10T05:58:07.670Z,985.34
2023-05-10T05:59:09.398Z,985.32
2023-05-10T06:00:11.116Z,985.31
2023-05-10T06:01:12.856Z,985.32
2023-05-10T06:02:14.697Z,985.36
2023-05-10T06:03:16.472Z,985.3
2023-05-10T06:04:18.170Z,985.3
2023-05-10T06:05:19.795Z,985.32
2023-05-10T06:06:21.539Z,985.29
2023-05-10T06:07:23.292Z,985.29
2023-05-10T06:08:24.992Z,985.34
2023-05-10T06:09:26.749Z,985.33
2023-05-10T06:10:28.512Z,985.32
2023-05-10T06:11:30.233Z,985.32
2023-05-10T06:12:31.930Z,985.3
2023-05-10T06:13:33.991Z,985.34
2023-05-10T06:14:35.425Z,985.36
2023-05-10T06:15:37.153Z,985.37
2023-05-10T06:16:38.928Z,985.38
2023-05-10T06:17:40.688Z,985.39
2023-05-10T06:18:42.395Z,985.45
2023-05-10T06:19:44.094Z,985.42
2023-05-10T06:20:45.812Z,985.44
2023-05-10T06:21:47.552Z,985.5
2023-05-10T06:22:49.293Z,985.5
2023-05-10T06:23:51.028Z,985.49
2023-05-10T06:24:52.773Z,985.49
2023-05-10T06:25:54.510Z,985.52
2023-05-10T06:26:56.218Z,985.5
2023-05-10T06:27:57.958Z,985.57
2023-05-10T06:28:59.704Z,985.53
2023-05-10T06:30:12.252Z,985.52
2023-05-10T06:31:03.137Z,985.58
2023-05-10T06:32:04.888Z,985.55
2023-05-10T06:33:06.667Z,985.5
2023-05-10T06:34:08.369Z,985.56
2023-05-10T06:35:10.102Z,985.53
2023-05-10T06:36:11.837Z,985.58
2023-05-10T06:37:13.582Z,985.58
2023-05-10T06:38:15.292Z,985.62
2023-05-10T06:39:17.025Z,985.57
2023-05-10T06:40:18.800Z,985.6
2023-05-10T06:41:22.044Z,985.6
2023-05-10T06:42:22.225Z,985.6
2023-05-10T06:43:23.979Z,985.61
2023-05-10T06:44:25.844Z,985.64
2023-05-10T06:45:27.447Z,985.58
2023-05-10T06:46:29.204Z,985.65
2023-05-10T06:47:30.990Z,985.64
2023-05-10T06:48:32.650Z,985.67
2023-05-10T06:49:34.450Z,985.68
2023-05-10T06:50:36.118Z,985.61
2023-05-10T06:51:37.844Z,985.67
2023-05-10T06:52:39.574Z,985.67
2023-05-10T06:53:41.318Z,985.69
2023-05-10T06:54:43.069Z,985.65
2023-05-10T06:55:44.794Z,985.73
2023-05-10T06:56:46.524Z,985.72
2023-05-10T06:57:48.263Z,985.7
2023-05-10T06:58:50.002Z,985.65
2023-05-10T06:59:51.713Z,985.7
2023-05-10T07:00:53.815Z,985.71
2023-05-10T07:01:55.341Z,985.73
2023-05-10T07:02:57.052Z,985.73
2023-05-10T07:03:58.713Z,985.78
2023-05-10T07:05:02.701Z,985.73
2023-05-10T07:06:02.124Z,985.75
2023-05-10T07:07:03.876Z,985.71
2023-05-10T07:08:05.598Z,985.75
2023-05-10T07:09:07.389Z,985.77
2023-05-10T07:10:09.052Z,985.76
2023-05-10T07:11:10.807Z,985.75
2023-05-10T07:12:14.704Z,985.83
2023-05-10T07:13:14.430Z,985.79
2023-05-10T07:14:16.036Z,985.85
2023-05-10T07:15:18.076Z,985.84
2023-05-10T07:16:19.524Z,985.88
2023-05-10T07:17:21.316Z,985.89
2023-05-10T07:18:22.959Z,985.91
2023-05-10T07:19:24.676Z,985.92
2023-05-10T07:20:26.403Z,985.89
2023-05-10T07:21:28.200Z,985.86
2023-05-10T07:22:29.882Z,985.91
2023-05-10T07:23:31.634Z,985.9
2023-05-10T07:24:33.356Z,985.97
2023-05-10T07:25:35.070Z,985.95
2023-05-10T07:26:36.826Z,985.91
2023-05-10T07:27:38.576Z,985.94
2023-05-10T07:28:40.279Z,985.96
2023-05-10T07:29:42.034Z,985.99
2023-05-10T07:30:43.863Z,985.97
2023-05-10T07:31:45.488Z,985.98
2023-05-10T07:32:47.292Z,985.98
2023-05-10T07:33:48.936Z,986
2023-05-10T07:34:50.741Z,986.02
2023-05-10T07:35:52.424Z,986.04
2023-05-10T07:36:54.196Z,986.06
2023-05-10T07:37:55.905Z,986.06
2023-05-10T07:38:57.623Z,986.05
2023-05-10T07:39:59.371Z,986.06
2023-05-10T07:41:01.148Z,986.1
2023-05-10T07:42:02.820Z,986.12
2023-05-10T07:43:04.564Z,986.11
2023-05-10T07:44:06.287Z,986.07
2023-05-10T07:45:08.033Z,986.12
2023-05-10T07:46:09.805Z,986.11
2023-05-10T07:47:11.657Z,986.19
2023-05-10T07:48:13.424Z,986.16
2023-05-10T07:49:14.959Z,986.14
2023-05-10T07:50:16.696Z,986.18
2023-05-10T07:51:18.430Z,986.16
2023-05-10T07:52:22.417Z,986.15
2023-05-10T07:53:21.908Z,986.09
2023-05-10T07:54:24.037Z,986.1
2023-05-10T07:55:25.395Z,986.09
2023-05-10T07:56:27.093Z,986.12
2023-05-10T07:57:28.857Z,986.15
2023-05-10T07:58:30.579Z,986.15
2023-05-10T07:59:32.323Z,986.15
2023-05-10T08:00:34.031Z,986.12
2023-05-10T08:01:35.766Z,986.17
2023-05-10T08:02:37.686Z,986.13
2023-05-10T08:03:39.304Z,986.14
2023-05-10T08:04:41.135Z,986.12
2023-05-10T08:05:42.720Z,986.12
2023-05-10T08:06:44.446Z,986.11
2023-05-10T08:07:46.166Z,986.1
2023-05-10T08:08:47.880Z,986.12
2023-05-10T08:09:49.655Z,986.08
2023-05-10T08:10:51.371Z,986.07
2023-05-10T08:11:53.125Z,986.08
2023-05-10T08:12:54.825Z,986.09
2023-05-10T08:13:56.581Z,986.13
2023-05-10T08:14:58.320Z,986.13
2023-05-10T08:16:00.154Z,986.15
2023-05-10T08:17:01.786Z,986.17
2023-05-10T08:18:03.535Z,986.19
2023-05-10T08:19:05.434Z,986.19
2023-05-10T08:20:07.073Z,986.12
2023-05-10T08:21:08.714Z,986.11
2023-05-10T08:22:10.460Z,986.17
2023-05-10T08:23:12.159Z,986.19
2023-05-10T08:24:13.922Z,986.21
2023-05-10T08:25:16.010Z,986.23
2023-05-10T08:26:17.373Z,986.21
2023-05-10T08:27:19.103Z,986.21
2023-05-10T08:28:20.972Z,986.14
2023-05-10T08:29:22.603Z,986.17
2023-05-10T08:30:24.291Z,986.21
2023-05-10T08:31:26.116Z,986.17
2023-05-10T08:32:27.826Z,986.19
2023-05-10T08:33:29.526Z,986.15
2023-05-10T08:34:31.287Z,986.25
2023-05-10T08:35:32.992Z,986.23
2023-05-10T08:36:34.744Z,986.23
2023-05-10T08:37:36.452Z,986.21
2023-05-10T08:38:38.218Z,986.28
2023-05-10T08:39:39.932Z,986.26
2023-05-10T08:40:41.677Z,986.26
2023-05-10T08:41:43.395Z,986.28
2023-05-10T08:42:45.126Z,986.29
2023-05-10T08:43:46.881Z,986.29
2023-05-10T08:44:49.583Z,986.33
2023-05-10T08:45:50.340Z,986.3
2023-05-10T08:46:52.152Z,986.31
2023-05-10T08:47:53.915Z,986.25
2023-05-10T08:48:55.548Z,986.3
2023-05-10T08:49:57.279Z,986.34
2023-05-10T08:50:59.009Z,986.31
2023-05-10T08:52:00.750Z,986.34
2023-05-10T08:53:02.499Z,986.34
2023-05-10T08:54:04.260Z,986.32
2023-05-10T08:55:05.935Z,986.4
2023-05-10T08:56:07.690Z,986.41
2023-05-10T08:57:09.418Z,986.4
2023-05-10T08:58:11.143Z,986.38
2023-05-10T08:59:12.916Z,986.4
2023-05-10T09:00:14.790Z,986.43
2023-05-10T09:01:16.377Z,986.44
2023-05-10T09:02:18.868Z,986.44
2023-05-10T09:03:19.817Z,986.5
2023-05-10T09:04:21.643Z,986.54
2023-05-10T09:05:23.304Z,986.49
2023-05-10T09:06:25.151Z,986.54
2023-05-10T09:07:26.750Z,986.53
2023-05-10T09:08:28.505Z,986.53
2023-05-10T09:09:30.218Z,986.55
2023-05-10T09:10:32.057Z,986.56
2023-05-10T09:11:33.693Z,986.59
2023-05-10T09:12:35.424Z,986.56
2023-05-10T09:13:37.189Z,986.53
2023-05-10T09:14:38.879Z,986.61
2023-05-10T09:15:40.636Z,986.58
2023-05-10T09:16:42.492Z,986.57
2023-05-10T09:17:44.174Z,986.62
2023-05-10T09:18:45.854Z,986.6
2023-05-10T09:19:47.574Z,986.6
2023-05-10T09:20:49.317Z,986.54
2023-05-10T09:21:51.031Z,986.57
2023-05-10T09:22:52.736Z,986.6
2023-05-10T09:23:54.524Z,986.61
2023-05-10T09:24:56.238Z,986.64
2023-05-10T09:25:57.964Z,986.57
2023-05-10T09:26:59.707Z,986.59
2023-05-10T09:28:01.454Z,986.62
2023-05-10T09:29:03.175Z,986.64
2023-05-10T09:30:05.085Z,986.65
2023-05-10T09:31:06.665Z,986.6
2023-05-10T09:32:08.379Z,986.71
2023-05-10T09:33:10.259Z,986.67
2023-05-10T09:34:11.855Z,986.72
2023-05-10T09:35:13.576Z,986.66
2023-05-10T09:36:15.285Z,986.67
2023-05-10T09:37:17.050Z,986.72
2023-05-10T09:38:18.778Z,986.74
2023-05-10T09:39:20.506Z,986.72
2023-05-10T09:40:22.261Z,986.82
2023-05-10T09:41:24.113Z,986.72
2023-05-10T09:42:25.751Z,986.8
2023-05-10T09:43:27.441Z,986.73
2023-05-10T09:44:29.169Z,986.77
2023-05-10T09:45:30.902Z,986.75
2023-05-10T09:46:32.671Z,986.76
2023-05-10T09:47:34.554Z,986.73
2023-05-10T09:48:36.126Z,986.69
2023-05-10T09:49:37.870Z,986.71
2023-05-10T09:50:39.578Z,986.72
2023-05-10T09:51:41.324Z,986.74
2023-05-10T09:52:43.061Z,986.7
2023-05-10T09:53:44.785Z,986.74
2023-05-10T09:54:46.516Z,986.75
2023-05-10T09:55:48.281Z,986.74
2023-05-10T09:56:50.036Z,986.76
2023-05-10T09:57:51.714Z,986.85
2023-05-10T09:58:53.466Z,986.84
2023-05-10T09:59:55.213Z,986.82
2023-05-10T10:00:56.931Z,986.9
2023-05-10T10:01:58.900Z,986.89
2023-05-10T10:03:00.492Z,986.9
2023-05-10T10:04:02.130Z,986.89
2023-05-10T10:05:03.954Z,986.9
2023-05-10T10:06:06.802Z,986.83
2023-05-10T10:07:07.550Z,986.94
2023-05-10T10:08:09.176Z,986.92
2023-05-10T10:09:10.802Z,986.9
2023-05-10T10:10:12.548Z,986.96
2023-05-10T10:11:14.277Z,986.9
2023-05-10T10:12:15.982Z,986.89
2023-05-10T10:13:17.750Z,986.91
2023-05-10T10:14:19.472Z,986.9
2023-05-10T10:15:21.419Z,986.94
2023-05-10T10:16:23.044Z,986.88
2023-05-10T10:17:24.684Z,986.94
2023-05-10T10:18:26.576Z,986.9
2023-05-10T10:19:28.133Z,986.86
2023-05-10T10:20:29.878Z,986.93
2023-05-10T10:21:31.589Z,986.91
2023-05-10T10:22:33.355Z,986.96
2023-05-10T10:23:35.075Z,986.9
2023-05-10T10:24:36.831Z,986.99
2023-05-10T10:25:38.535Z,986.97
2023-05-10T10:26:40.323Z,986.95
2023-05-10T10:27:42.334Z,987.01
2023-05-10T10:28:43.750Z,987.04
2023-05-10T10:29:45.476Z,987.02
2023-05-10T10:30:47.240Z,987.08
2023-05-10T10:31:49.087Z,987.11
2023-05-10T10:32:50.691Z,987.08
2023-05-10T10:33:52.421Z,987.08
2023-05-10T10:34:54.161Z,987.09
2023-05-10T10:35:55.900Z,987.11
2023-05-10T10:36:57.653Z,987.12
2023-05-10T10:37:59.358Z,987.14
2023-05-10T10:39:01.072Z,987.12
2023-05-10T10:40:02.820Z,987.15
2023-05-10T10:41:04.543Z,987.08
2023-05-10T10:42:06.324Z,987.13
2023-05-10T10:43:08.037Z,987.14
2023-05-10T10:44:09.819Z,987.13
2023-05-10T10:45:11.480Z,987.15
2023-05-10T10:46:13.346Z,987.13
2023-05-10T10:47:14.974Z,987.09
2023-05-10T10:48:16.691Z,987.05
2023-05-10T10:49:18.413Z,987.01
2023-05-10T10:50:20.158Z,987.05
2023-05-10T10:51:21.971Z,987.03
2023-05-10T10:52:23.652Z,987.02
2023-05-10T10:53:25.485Z,987
2023-05-10T10:54:27.121Z,987.01
2023-05-10T10:55:28.822Z,987.01
2023-05-10T10:56:30.568Z,986.99
2023-05-10T10:57:32.310Z,987.03
2023-05-10T10:58:34.045Z,987
2023-05-10T10:59:35.777Z,987
2023-05-10T11:00:37.770Z,986.98
2023-05-10T11:01:39.293Z,986.98
2023-05-10T11:02:41.001Z,987.02
2023-05-10T11:03:42.704Z,987.07
2023-05-10T11:04:44.962Z,987.05
2023-05-10T11:05:46.182Z,987.05
2023-05-10T11:06:47.888Z,987.06
2023-05-10T11:07:49.628Z,987.01
2023-05-10T11:08:51.374Z,987.03
2023-05-10T11:09:53.121Z,986.98
2023-05-10T11:10:54.845Z,987.01
2023-05-10T11:11:56.664Z,986.95
2023-05-10T11:12:58.326Z,986.99
2023-05-10T11:14:00.069Z,986.99
2023-05-10T11:15:01.786Z,986.98
2023-05-10T11:16:03.516Z,987.01
2023-05-10T11:17:05.254Z,987.03
2023-05-10T11:18:07.015Z,986.97
2023-05-10T11:19:08.999Z,986.95
2023-05-10T11:20:10.445Z,986.95
2023-05-10T11:21:12.193Z,986.94
2023-05-10T11:22:13.898Z,986.98
2023-05-10T11:23:15.647Z,986.97
2023-05-10T11:24:17.403Z,986.98
2023-05-10T11:25:19.129Z,986.91
2023-05-10T11:26:20.848Z,986.91
2023-05-10T11:27:22.583Z,986.92
2023-05-10T11:28:24.302Z,986.9
2023-05-10T11:29:26.080Z,986.92
2023-05-10T11:30:27.767Z,986.91
2023-05-10T11:31:29.804Z,986.97
2023-05-10T11:32:31.291Z,986.92
2023-05-10T11:33:32.998Z,986.91
2023-05-10T11:34:34.945Z,986.95
2023-05-10T11:35:36.459Z,986.95
2023-05-10T11:36:38.203Z,986.94
2023-05-10T11:37:39.993Z,986.89
2023-05-10T11:38:41.648Z,986.95
2023-05-10T11:39:43.419Z,986.97
2023-05-10T11:40:45.111Z,986.94
2023-05-10T11:41:46.869Z,987.02
2023-05-10T11:42:49.690Z,987
2023-05-10T11:43:50.420Z,987.05
2023-05-10T11:44:52.157Z,987.02
2023-05-10T11:45:53.964Z,987.07
2023-05-10T11:46:55.641Z,987.08
2023-05-10T11:47:57.510Z,987.11
2023-05-10T11:48:59.094Z,987.08
2023-05-10T11:50:00.863Z,987.16
2023-05-10T11:51:02.543Z,987.14
2023-05-10T11:52:04.291Z,987.12
2023-05-10T11:53:06.139Z,987.12
2023-05-10T11:54:07.757Z,987.14
2023-05-10T11:55:09.510Z,987.12
2023-05-10T11:56:11.222Z,987.09
2023-05-10T11:57:12.977Z,987.18
2023-05-10T11:58:14.683Z,987.17
2023-05-10T11:59:16.428Z,987.2
2023-05-10T12:00:18.618Z,987.26
2023-05-10T12:01:19.907Z,987.26
2023-05-10T12:02:21.652Z,987.27
2023-05-10T12:03:23.655Z,987.28
2023-05-10T12:04:25.573Z,987.26
2023-05-10T12:05:26.845Z,987.26
2023-05-10T12:06:28.569Z,987.27
2023-05-10T12:07:30.302Z,987.32
2023-05-10T12:08:32.073Z,987.37
2023-05-10T12:09:43.137Z,987.37
2023-05-10T12:10:35.478Z,987.39
2023-05-10T12:11:37.270Z,987.33
2023-05-10T12:12:38.971Z,987.35
2023-05-10T12:13:40.713Z,987.38
2023-05-10T12:14:42.442Z,987.4
2023-05-10T12:15:44.181Z,987.42
2023-05-10T12:16:46.158Z,987.47
2023-05-10T12:17:47.677Z,987.51
2023-05-10T12:18:49.460Z,987.53
2023-05-10T12:19:51.120Z,987.51
2023-05-10T12:20:52.849Z,987.54
2023-05-10T12:21:54.583Z,987.57
2023-05-10T12:22:57.817Z,987.56
2023-05-10T12:23:58.050Z,987.57
2023-05-10T12:24:59.805Z,987.62
2023-05-10T12:26:01.547Z,987.58
2023-05-10T12:27:03.254Z,987.55
2023-05-10T12:28:05.007Z,987.53
2023-05-10T12:29:06.728Z,987.54
2023-05-10T12:30:08.458Z,987.56
2023-05-10T12:31:10.219Z,987.47
2023-05-10T12:32:12.153Z,987.53
2023-05-10T12:33:13.698Z,987.54
2023-05-10T12:34:15.389Z,987.53
2023-05-10T12:35:17.129Z,987.53
2023-05-10T12:36:18.861Z,987.49
2023-05-10T12:37:20.580Z,987.5
2023-05-10T12:38:22.327Z,987.51
2023-05-10T12:39:24.064Z,987.53
2023-05-10T12:40:25.792Z,987.55
2023-05-10T12:41:27.656Z,987.53
2023-05-10T12:42:29.258Z,987.55
2023-05-10T12:43:30.993Z,987.53
2023-05-10T12:44:32.721Z,987.56
2023-05-10T12:45:34.501Z,987.53
2023-05-10T12:46:36.196Z,987.51
2023-05-10T12:47:38.095Z,987.51
2023-05-10T12:48:39.681Z,987.5
2023-05-10T12:49:41.393Z,987.53
2023-05-10T12:50:43.152Z,987.53
2023-05-10T12:51:44.881Z,987.52
2023-05-10T12:52:46.610Z,987.52
2023-05-10T12:53:49.746Z,987.58
2023-05-10T12:54:50.090Z,987.54
2023-05-10T12:55:51.836Z,987.54
2023-05-10T12:56:53.546Z,987.55